Terminal Aerodrome Forecast
Issued by NWS

Home | Current Version | Previous Version | Graphics & Text | Print | Product List | Glossary On
Versions: 1 2 3 4 5 6 7 8 9 10 11 12 13 14 15 16 17 18 19 20 21 22 23 24 25 26 27 28 29 30 31 32 33 34 35 36 37
000
FTUS43 KLOT 220800 AAA
TAFMDW
TAF AMD
KMDW 220845Z 2209/2306 19013KT P6SM VCSH OVC013 WS018/22045KT
      TEMPO 2209/2212 5SM -SHRA
     FM221200 20011KT 4SM -DZ BR VCSH OVC007
     FM222000 20012KT 6SM BR OVC010
     FM230100 20013KT 4SM BR OVC007=

USA.gov is the U.S. government's official web portal to all federal, state and local government web resources and services.